sensor_id;sensor_type;location;lat;lon;timestamp;temperature;humidity
15343;DHT22;7771;48.478;8.936;2023-05-07T00:02:13;15.10;99.90
15343;DHT22;7771;48.478;8.936;2023-05-07T00:04:40;15.10;99.90
15343;DHT22;7771;48.478;8.936;2023-05-07T00:09:36;15.00;99.90
15343;DHT22;7771;48.478;8.936;2023-05-07T00:12:02;15.00;99.90
15343;DHT22;7771;48.478;8.936;2023-05-07T00:14:30;15.00;99.90
15343;DHT22;7771;48.478;8.936;2023-05-07T00:16:56;14.90;99.90
15343;DHT22;7771;48.478;8.936;2023-05-07T00:19:23;14.90;99.90
15343;DHT22;7771;48.478;8.936;2023-05-07T00:21:50;14.90;99.90
15343;DHT22;7771;48.478;8.936;2023-05-07T00:24:17;14.90;99.90
15343;DHT22;7771;48.478;8.936;2023-05-07T00:26:44;15.00;99.90
15343;DHT22;7771;48.478;8.936;2023-05-07T00:29:11;15.00;99.90
15343;DHT22;7771;48.478;8.936;2023-05-07T00:31:37;14.90;99.90
15343;DHT22;7771;48.478;8.936;2023-05-07T00:34:05;14.80;99.90
15343;DHT22;7771;48.478;8.936;2023-05-07T00:36:31;14.80;99.90
15343;DHT22;7771;48.478;8.936;2023-05-07T00:38:59;14.70;99.90
15343;DHT22;7771;48.478;8.936;2023-05-07T00:41:25;14.70;99.90
15343;DHT22;7771;48.478;8.936;2023-05-07T00:43:53;14.60;99.90
15343;DHT22;7771;48.478;8.936;2023-05-07T00:46:20;14.60;99.90
15343;DHT22;7771;48.478;8.936;2023-05-07T00:48:47;14.60;99.90
15343;DHT22;7771;48.478;8.936;2023-05-07T00:51:13;14.60;99.90
15343;DHT22;7771;48.478;8.936;2023-05-07T00:53:40;14.60;99.90
15343;DHT22;7771;48.478;8.936;2023-05-07T00:56:07;14.60;99.90
15343;DHT22;7771;48.478;8.936;2023-05-07T00:58:34;14.50;99.90
15343;DHT22;7771;48.478;8.936;2023-05-07T01:01:00;14.50;99.90
15343;DHT22;7771;48.478;8.936;2023-05-07T01:03:28;14.50;99.90
15343;DHT22;7771;48.478;8.936;2023-05-07T01:05:54;14.50;99.90
15343;DHT22;7771;48.478;8.936;2023-05-07T01:08:22;14.40;99.90
15343;DHT22;7771;48.478;8.936;2023-05-07T01:10:48;14.50;99.90
15343;DHT22;7771;48.478;8.936;2023-05-07T01:13:15;14.40;99.90
15343;DHT22;7771;48.478;8.936;2023-05-07T01:15:42;14.40;99.90
15343;DHT22;7771;48.478;8.936;2023-05-07T01:18:09;14.40;99.90
15343;DHT22;7771;48.478;8.936;2023-05-07T01:20:36;14.40;99.90
15343;DHT22;7771;48.478;8.936;2023-05-07T01:23:03;14.40;99.90
15343;DHT22;7771;48.478;8.936;2023-05-07T01:25:29;14.30;99.90
15343;DHT22;7771;48.478;8.936;2023-05-07T01:27:57;14.30;99.90
15343;DHT22;7771;48.478;8.936;2023-05-07T01:30:24;14.30;99.90
15343;DHT22;7771;48.478;8.936;2023-05-07T01:32:52;14.30;99.90
15343;DHT22;7771;48.478;8.936;2023-05-07T01:35:19;14.30;99.90
15343;DHT22;7771;48.478;8.936;2023-05-07T01:37:46;14.20;99.90
15343;DHT22;7771;48.478;8.936;2023-05-07T01:40:13;14.10;99.90
15343;DHT22;7771;48.478;8.936;2023-05-07T01:42:41;14.10;99.90
15343;DHT22;7771;48.478;8.936;2023-05-07T01:45:09;14.10;99.90
15343;DHT22;7771;48.478;8.936;2023-05-07T01:47:37;14.00;99.90
15343;DHT22;7771;48.478;8.936;2023-05-07T01:50:06;14.00;99.90
15343;DHT22;7771;48.478;8.936;2023-05-07T01:52:34;14.00;99.90
15343;DHT22;7771;48.478;8.936;2023-05-07T01:55:02;14.00;99.90
15343;DHT22;7771;48.478;8.936;2023-05-07T01:57:30;13.90;99.90
15343;DHT22;7771;48.478;8.936;2023-05-07T01:59:58;13.90;99.90
15343;DHT22;7771;48.478;8.936;2023-05-07T02:02:24;13.90;99.90
15343;DHT22;7771;48.478;8.936;2023-05-07T02:07:20;13.90;99.90
15343;DHT22;7771;48.478;8.936;2023-05-07T02:09:48;13.90;99.90
15343;DHT22;7771;48.478;8.936;2023-05-07T02:12:15;13.90;99.90
15343;DHT22;7771;48.478;8.936;2023-05-07T02:14:42;13.90;99.90
15343;DHT22;7771;48.478;8.936;2023-05-07T02:17:10;13.90;99.90
15343;DHT22;7771;48.478;8.936;2023-05-07T02:19:37;13.90;99.90
15343;DHT22;7771;48.478;8.936;2023-05-07T02:22:05;13.90;99.90
15343;DHT22;7771;48.478;8.936;2023-05-07T02:24:31;13.80;99.90
15343;DHT22;7771;48.478;8.936;2023-05-07T02:26:58;13.80;99.90
15343;DHT22;7771;48.478;8.936;2023-05-07T02:29:25;13.70;99.90
15343;DHT22;7771;48.478;8.936;2023-05-07T02:31:52;13.70;99.90
15343;DHT22;7771;48.478;8.936;2023-05-07T02:34:19;13.70;99.90
15343;DHT22;7771;48.478;8.936;2023-05-07T02:36:46;13.70;99.90
15343;DHT22;7771;48.478;8.936;2023-05-07T02:39:14;13.60;99.90
15343;DHT22;7771;48.478;8.936;2023-05-07T02:41:41;13.60;99.90
15343;DHT22;7771;48.478;8.936;2023-05-07T02:44:09;13.60;99.90
15343;DHT22;7771;48.478;8.936;2023-05-07T02:46:36;13.50;99.90
15343;DHT22;7771;48.478;8.936;2023-05-07T02:49:02;13.50;99.90
15343;DHT22;7771;48.478;8.936;2023-05-07T02:51:30;13.50;99.90
15343;DHT22;7771;48.478;8.936;2023-05-07T02:53:58;13.50;99.90
15343;DHT22;7771;48.478;8.936;2023-05-07T02:58:52;13.40;99.90
15343;DHT22;7771;48.478;8.936;2023-05-07T03:01:20;13.40;99.90
15343;DHT22;7771;48.478;8.936;2023-05-07T03:03:48;13.40;99.90
15343;DHT22;7771;48.478;8.936;2023-05-07T03:06:16;13.40;99.90
15343;DHT22;7771;48.478;8.936;2023-05-07T03:08:43;13.30;99.90
15343;DHT22;7771;48.478;8.936;2023-05-07T03:11:09;13.30;99.90
15343;DHT22;7771;48.478;8.936;2023-05-07T03:13:41;13.30;99.90
15343;DHT22;7771;48.478;8.936;2023-05-07T03:16:09;13.30;99.90
15343;DHT22;7771;48.478;8.936;2023-05-07T03:18:35;13.30;99.90
15343;DHT22;7771;48.478;8.936;2023-05-07T03:21:03;13.30;99.90
15343;DHT22;7771;48.478;8.936;2023-05-07T03:23:29;13.30;99.90
15343;DHT22;7771;48.478;8.936;2023-05-07T03:25:57;13.20;99.90
15343;DHT22;7771;48.478;8.936;2023-05-07T03:28:24;13.30;99.90
15343;DHT22;7771;48.478;8.936;2023-05-07T03:30:51;13.20;99.90
15343;DHT22;7771;48.478;8.936;2023-05-07T03:33:17;13.20;99.90
15343;DHT22;7771;48.478;8.936;2023-05-07T03:35:44;13.20;99.90
15343;DHT22;7771;48.478;8.936;2023-05-07T03:38:11;13.20;99.90
15343;DHT22;7771;48.478;8.936;2023-05-07T03:40:38;13.20;99.90
15343;DHT22;7771;48.478;8.936;2023-05-07T03:43:05;13.20;99.90
15343;DHT22;7771;48.478;8.936;2023-05-07T03:45:32;13.10;99.90
15343;DHT22;7771;48.478;8.936;2023-05-07T03:47:58;13.10;99.90
15343;DHT22;7771;48.478;8.936;2023-05-07T03:50:26;13.10;99.90
15343;DHT22;7771;48.478;8.936;2023-05-07T03:52:53;13.10;99.90
15343;DHT22;7771;48.478;8.936;2023-05-07T03:55:20;13.10;99.90
15343;DHT22;7771;48.478;8.936;2023-05-07T03:57:48;13.00;99.90
15343;DHT22;7771;48.478;8.936;2023-05-07T04:00:15;13.00;99.90
15343;DHT22;7771;48.478;8.936;2023-05-07T04:02:42;13.00;99.90
15343;DHT22;7771;48.478;8.936;2023-05-07T04:05:09;13.00;99.90
15343;DHT22;7771;48.478;8.936;2023-05-07T04:10:04;13.00;99.90
15343;DHT22;7771;48.478;8.936;2023-05-07T04:12:31;13.00;99.90
15343;DHT22;7771;48.478;8.936;2023-05-07T04:14:59;13.00;99.90
15343;DHT22;7771;48.478;8.936;2023-05-07T04:17:25;13.00;99.90
15343;DHT22;7771;48.478;8.936;2023-05-07T04:19:52;13.00;99.90
15343;DHT22;7771;48.478;8.936;2023-05-07T04:22:19;13.00;99.90
15343;DHT22;7771;48.478;8.936;2023-05-07T04:27:14;13.00;99.90
15343;DHT22;7771;48.478;8.936;2023-05-07T04:29:40;13.00;99.90
15343;DHT22;7771;48.478;8.936;2023-05-07T04:32:08;13.00;99.90
15343;DHT22;7771;48.478;8.936;2023-05-07T04:34:34;12.90;99.90
15343;DHT22;7771;48.478;8.936;2023-05-07T04:39:28;12.90;99.90
15343;DHT22;7771;48.478;8.936;2023-05-07T04:41:56;12.90;99.90
15343;DHT22;7771;48.478;8.936;2023-05-07T04:46:52;12.90;99.90
15343;DHT22;7771;48.478;8.936;2023-05-07T04:49:18;12.90;99.90
15343;DHT22;7771;48.478;8.936;2023-05-07T04:51:45;13.00;99.90
15343;DHT22;7771;48.478;8.936;2023-05-07T04:54:12;13.00;99.90
15343;DHT22;7771;48.478;8.936;2023-05-07T04:56:39;13.00;99.90
15343;DHT22;7771;48.478;8.936;2023-05-07T04:59:05;13.00;99.90
15343;DHT22;7771;48.478;8.936;2023-05-07T05:01:33;13.00;99.90
15343;DHT22;7771;48.478;8.936;2023-05-07T05:04:01;13.10;99.90
15343;DHT22;7771;48.478;8.936;2023-05-07T05:06:29;13.20;99.90
15343;DHT22;7771;48.478;8.936;2023-05-07T05:08:55;13.30;99.90
15343;DHT22;7771;48.478;8.936;2023-05-07T05:11:23;13.30;99.90
15343;DHT22;7771;48.478;8.936;2023-05-07T05:13:51;13.50;99.90
15343;DHT22;7771;48.478;8.936;2023-05-07T05:18:45;13.70;99.90
15343;DHT22;7771;48.478;8.936;2023-05-07T05:23:40;13.80;99.90
15343;DHT22;7771;48.478;8.936;2023-05-07T05:26:07;13.90;99.90
15343;DHT22;7771;48.478;8.936;2023-05-07T05:28:34;14.00;99.90
15343;DHT22;7771;48.478;8.936;2023-05-07T05:31:01;14.10;99.90
15343;DHT22;7771;48.478;8.936;2023-05-07T05:33:28;14.20;99.90
15343;DHT22;7771;48.478;8.936;2023-05-07T05:35:54;14.30;99.90
15343;DHT22;7771;48.478;8.936;2023-05-07T05:38:22;14.40;99.90
15343;DHT22;7771;48.478;8.936;2023-05-07T05:40:48;14.50;99.90
15343;DHT22;7771;48.478;8.936;2023-05-07T05:45:44;14.60;99.90
15343;DHT22;7771;48.478;8.936;2023-05-07T05:48:11;14.70;99.90
15343;DHT22;7771;48.478;8.936;2023-05-07T05:55:34;15.00;99.90
15343;DHT22;7771;48.478;8.936;2023-05-07T05:58:01;15.00;99.90
15343;DHT22;7771;48.478;8.936;2023-05-07T06:00:28;15.10;99.90
15343;DHT22;7771;48.478;8.936;2023-05-07T06:02:55;15.20;99.90
15343;DHT22;7771;48.478;8.936;2023-05-07T06:05:21;15.30;99.90
15343;DHT22;7771;48.478;8.936;2023-05-07T06:07:49;15.40;99.90
15343;DHT22;7771;48.478;8.936;2023-05-07T06:12:45;15.60;99.90
15343;DHT22;7771;48.478;8.936;2023-05-07T06:15:12;15.80;99.90
15343;DHT22;7771;48.478;8.936;2023-05-07T06:17:39;16.00;99.90
15343;DHT22;7771;48.478;8.936;2023-05-07T06:20:07;16.10;99.90
15343;DHT22;7771;48.478;8.936;2023-05-07T06:22:34;16.20;99.90
15343;DHT22;7771;48.478;8.936;2023-05-07T06:25:00;16.40;99.90
15343;DHT22;7771;48.478;8.936;2023-05-07T06:27:28;16.50;99.90
15343;DHT22;7771;48.478;8.936;2023-05-07T06:29:55;16.60;99.90
15343;DHT22;7771;48.478;8.936;2023-05-07T06:32:22;16.60;99.90
15343;DHT22;7771;48.478;8.936;2023-05-07T06:37:16;16.80;99.90
15343;DHT22;7771;48.478;8.936;2023-05-07T06:39:43;16.90;99.90
15343;DHT22;7771;48.478;8.936;2023-05-07T06:42:10;17.00;99.90
15343;DHT22;7771;48.478;8.936;2023-05-07T06:44:38;17.10;99.90
15343;DHT22;7771;48.478;8.936;2023-05-07T06:47:05;17.20;99.90
15343;DHT22;7771;48.478;8.936;2023-05-07T06:49:33;17.30;99.90
15343;DHT22;7771;48.478;8.936;2023-05-07T06:51:59;17.30;99.90
15343;DHT22;7771;48.478;8.936;2023-05-07T06:56:55;17.50;99.90
15343;DHT22;7771;48.478;8.936;2023-05-07T06:59:21;17.60;99.90
15343;DHT22;7771;48.478;8.936;2023-05-07T07:01:48;17.90;99.90
15343;DHT22;7771;48.478;8.936;2023-05-07T07:04:15;18.60;99.90
15343;DHT22;7771;48.478;8.936;2023-05-07T07:09:10;21.00;99.90
15343;DHT22;7771;48.478;8.936;2023-05-07T07:11:37;22.20;99.90
15343;DHT22;7771;48.478;8.936;2023-05-07T07:14:04;23.20;99.90
15343;DHT22;7771;48.478;8.936;2023-05-07T07:16:30;24.10;99.90
15343;DHT22;7771;48.478;8.936;2023-05-07T07:18:58;24.90;99.90
15343;DHT22;7771;48.478;8.936;2023-05-07T07:21:24;25.70;99.90
15343;DHT22;7771;48.478;8.936;2023-05-07T07:23:51;26.20;97.30
15343;DHT22;7771;48.478;8.936;2023-05-07T07:26:19;26.20;96.80
15343;DHT22;7771;48.478;8.936;2023-05-07T07:28:46;26.00;96.00
15343;DHT22;7771;48.478;8.936;2023-05-07T07:31:14;25.70;95.80
15343;DHT22;7771;48.478;8.936;2023-05-07T07:33:42;25.30;95.40
15343;DHT22;7771;48.478;8.936;2023-05-07T07:36:09;24.80;95.60
15343;DHT22;7771;48.478;8.936;2023-05-07T07:38:35;24.30;95.90
15343;DHT22;7771;48.478;8.936;2023-05-07T07:41:03;23.90;96.60
15343;DHT22;7771;48.478;8.936;2023-05-07T07:45:57;23.20;97.10
15343;DHT22;7771;48.478;8.936;2023-05-07T07:48:24;22.90;97.50
15343;DHT22;7771;48.478;8.936;2023-05-07T07:50:51;22.60;98.20
15343;DHT22;7771;48.478;8.936;2023-05-07T07:53:17;22.40;98.50
15343;DHT22;7771;48.478;8.936;2023-05-07T07:55:44;22.10;98.90
15343;DHT22;7771;48.478;8.936;2023-05-07T07:58:12;22.00;99.80
15343;DHT22;7771;48.478;8.936;2023-05-07T08:00:40;21.80;99.80
15343;DHT22;7771;48.478;8.936;2023-05-07T08:03:10;21.50;99.90
15343;DHT22;7771;48.478;8.936;2023-05-07T08:05:37;21.40;99.90
15343;DHT22;7771;48.478;8.936;2023-05-07T08:08:05;21.20;99.90
15343;DHT22;7771;48.478;8.936;2023-05-07T08:10:32;21.00;99.90
15343;DHT22;7771;48.478;8.936;2023-05-07T08:12:59;20.80;99.90
15343;DHT22;7771;48.478;8.936;2023-05-07T08:15:26;20.70;99.90
15343;DHT22;7771;48.478;8.936;2023-05-07T08:17:54;20.60;99.90
15343;DHT22;7771;48.478;8.936;2023-05-07T08:22:49;20.50;99.90
15343;DHT22;7771;48.478;8.936;2023-05-07T08:25:17;20.70;99.90
15343;DHT22;7771;48.478;8.936;2023-05-07T08:27:44;21.00;99.90
15343;DHT22;7771;48.478;8.936;2023-05-07T08:30:12;21.20;99.90
15343;DHT22;7771;48.478;8.936;2023-05-07T08:32:39;21.50;99.90
15343;DHT22;7771;48.478;8.936;2023-05-07T08:35:06;21.70;99.90
15343;DHT22;7771;48.478;8.936;2023-05-07T08:37:33;21.90;99.90
15343;DHT22;7771;48.478;8.936;2023-05-07T08:40:00;22.10;99.90
15343;DHT22;7771;48.478;8.936;2023-05-07T08:42:27;22.30;99.90
15343;DHT22;7771;48.478;8.936;2023-05-07T08:44:54;22.50;99.90
15343;DHT22;7771;48.478;8.936;2023-05-07T08:47:22;22.60;99.90
15343;DHT22;7771;48.478;8.936;2023-05-07T08:49:48;22.80;99.90
15343;DHT22;7771;48.478;8.936;2023-05-07T08:52:15;23.00;99.90
15343;DHT22;7771;48.478;8.936;2023-05-07T08:54:41;23.20;99.90
15343;DHT22;7771;48.478;8.936;2023-05-07T08:57:08;23.50;99.90
15343;DHT22;7771;48.478;8.936;2023-05-07T08:59:36;23.80;99.60
15343;DHT22;7771;48.478;8.936;2023-05-07T09:02:04;24.00;99.10
15343;DHT22;7771;48.478;8.936;2023-05-07T09:04:31;24.20;99.00
15343;DHT22;7771;48.478;8.936;2023-05-07T09:06:58;24.30;98.80
15343;DHT22;7771;48.478;8.936;2023-05-07T09:09:24;24.60;98.00
15343;DHT22;7771;48.478;8.936;2023-05-07T09:11:56;24.60;97.70
15343;DHT22;7771;48.478;8.936;2023-05-07T09:14:18;24.70;97.90
15343;DHT22;7771;48.478;8.936;2023-05-07T09:16:46;24.80;98.00
15343;DHT22;7771;48.478;8.936;2023-05-07T09:19:12;24.90;96.80
15343;DHT22;7771;48.478;8.936;2023-05-07T09:21:39;25.00;97.00
15343;DHT22;7771;48.478;8.936;2023-05-07T09:24:06;25.00;96.70
15343;DHT22;7771;48.478;8.936;2023-05-07T09:26:32;25.10;96.70
15343;DHT22;7771;48.478;8.936;2023-05-07T09:28:59;25.10;96.60
15343;DHT22;7771;48.478;8.936;2023-05-07T09:31:27;25.10;96.60
15343;DHT22;7771;48.478;8.936;2023-05-07T09:33:55;25.20;96.70
15343;DHT22;7771;48.478;8.936;2023-05-07T09:36:22;25.40;95.90
15343;DHT22;7771;48.478;8.936;2023-05-07T09:38:49;25.50;95.90
15343;DHT22;7771;48.478;8.936;2023-05-07T09:41:15;25.60;95.90
15343;DHT22;7771;48.478;8.936;2023-05-07T09:43:43;25.60;96.30
15343;DHT22;7771;48.478;8.936;2023-05-07T09:46:12;25.70;96.50
15343;DHT22;7771;48.478;8.936;2023-05-07T09:48:39;25.80;96.10
15343;DHT22;7771;48.478;8.936;2023-05-07T09:51:11;25.80;96.10
15343;DHT22;7771;48.478;8.936;2023-05-07T09:53:36;25.90;95.80
15343;DHT22;7771;48.478;8.936;2023-05-07T09:56:02;26.00;95.60
15343;DHT22;7771;48.478;8.936;2023-05-07T09:58:30;26.00;95.90
15343;DHT22;7771;48.478;8.936;2023-05-07T10:00:57;26.10;95.80
15343;DHT22;7771;48.478;8.936;2023-05-07T10:03:25;26.20;95.30
15343;DHT22;7771;48.478;8.936;2023-05-07T10:05:52;26.20;95.20
15343;DHT22;7771;48.478;8.936;2023-05-07T10:08:20;26.30;95.20
15343;DHT22;7771;48.478;8.936;2023-05-07T10:10:47;26.20;95.10
15343;DHT22;7771;48.478;8.936;2023-05-07T10:13:14;26.20;95.10
15343;DHT22;7771;48.478;8.936;2023-05-07T10:15:41;26.30;95.00
15343;DHT22;7771;48.478;8.936;2023-05-07T10:18:08;26.20;94.90
15343;DHT22;7771;48.478;8.936;2023-05-07T10:20:36;26.20;95.30
15343;DHT22;7771;48.478;8.936;2023-05-07T10:23:04;26.30;95.00
15343;DHT22;7771;48.478;8.936;2023-05-07T10:25:31;26.20;94.40
15343;DHT22;7771;48.478;8.936;2023-05-07T10:27:59;26.20;94.10
15343;DHT22;7771;48.478;8.936;2023-05-07T10:30:49;26.30;93.40
15343;DHT22;7771;48.478;8.936;2023-05-07T10:33:11;26.40;93.70
15343;DHT22;7771;48.478;8.936;2023-05-07T10:35:38;26.40;93.70
15343;DHT22;7771;48.478;8.936;2023-05-07T10:43:19;26.60;94.00
15343;DHT22;7771;48.478;8.936;2023-05-07T10:48:28;26.80;93.40
15343;DHT22;7771;48.478;8.936;2023-05-07T10:53:44;26.80;93.20
15343;DHT22;7771;48.478;8.936;2023-05-07T10:56:27;27.00;93.30
15343;DHT22;7771;48.478;8.936;2023-05-07T10:58:55;27.00;92.70
15343;DHT22;7771;48.478;8.936;2023-05-07T11:04:17;27.00;91.80
15343;DHT22;7771;48.478;8.936;2023-05-07T11:07:23;26.90;91.50
15343;DHT22;7771;48.478;8.936;2023-05-07T11:09:55;26.80;92.00
15343;DHT22;7771;48.478;8.936;2023-05-07T11:15:01;26.30;92.50
15343;DHT22;7771;48.478;8.936;2023-05-07T11:17:28;26.10;92.90
15343;DHT22;7771;48.478;8.936;2023-05-07T11:19:57;26.00;93.30
15343;DHT22;7771;48.478;8.936;2023-05-07T11:22:37;25.90;93.10
15343;DHT22;7771;48.478;8.936;2023-05-07T11:25:06;25.70;92.90
15343;DHT22;7771;48.478;8.936;2023-05-07T11:27:33;25.60;93.00
15343;DHT22;7771;48.478;8.936;2023-05-07T11:30:01;25.50;93.00
15343;DHT22;7771;48.478;8.936;2023-05-07T11:32:28;25.50;93.10
15343;DHT22;7771;48.478;8.936;2023-05-07T11:34:56;25.40;93.20
15343;DHT22;7771;48.478;8.936;2023-05-07T11:37:24;25.40;93.80
15343;DHT22;7771;48.478;8.936;2023-05-07T11:39:50;25.30;94.90
15343;DHT22;7771;48.478;8.936;2023-05-07T11:44:52;25.00;97.20
15343;DHT22;7771;48.478;8.936;2023-05-07T11:47:20;24.90;98.50
15343;DHT22;7771;48.478;8.936;2023-05-07T11:49:49;24.60;99.20
15343;DHT22;7771;48.478;8.936;2023-05-07T11:52:17;24.30;99.90
15343;DHT22;7771;48.478;8.936;2023-05-07T11:54:53;24.10;99.90
15343;DHT22;7771;48.478;8.936;2023-05-07T11:57:20;23.80;99.90
15343;DHT22;7771;48.478;8.936;2023-05-07T11:59:47;23.60;99.90
15343;DHT22;7771;48.478;8.936;2023-05-07T12:02:14;23.40;99.90
15343;DHT22;7771;48.478;8.936;2023-05-07T12:04:41;23.30;99.90
15343;DHT22;7771;48.478;8.936;2023-05-07T12:07:13;23.10;99.90
15343;DHT22;7771;48.478;8.936;2023-05-07T12:09:40;23.00;99.90
15343;DHT22;7771;48.478;8.936;2023-05-07T12:14:38;22.70;99.90
15343;DHT22;7771;48.478;8.936;2023-05-07T12:17:05;22.50;99.90
15343;DHT22;7771;48.478;8.936;2023-05-07T12:19:33;22.50;99.90
15343;DHT22;7771;48.478;8.936;2023-05-07T12:21:59;22.30;99.90
15343;DHT22;7771;48.478;8.936;2023-05-07T12:24:27;22.20;99.90
15343;DHT22;7771;48.478;8.936;2023-05-07T12:26:53;22.20;99.90
15343;DHT22;7771;48.478;8.936;2023-05-07T12:31:49;22.20;99.90
15343;DHT22;7771;48.478;8.936;2023-05-07T12:34:17;22.10;99.90
15343;DHT22;7771;48.478;8.936;2023-05-07T12:36:44;22.00;99.90
15343;DHT22;7771;48.478;8.936;2023-05-07T12:39:10;21.80;99.90
15343;DHT22;7771;48.478;8.936;2023-05-07T12:46:46;21.40;99.90
15343;DHT22;7771;48.478;8.936;2023-05-07T12:49:13;21.30;99.90
15343;DHT22;7771;48.478;8.936;2023-05-07T12:51:40;21.20;99.90
15343;DHT22;7771;48.478;8.936;2023-05-07T12:54:08;21.10;99.90
15343;DHT22;7771;48.478;8.936;2023-05-07T12:56:35;20.90;99.90
15343;DHT22;7771;48.478;8.936;2023-05-07T12:59:02;20.70;99.90
15343;DHT22;7771;48.478;8.936;2023-05-07T13:01:29;20.50;99.90
15343;DHT22;7771;48.478;8.936;2023-05-07T13:04:00;20.40;99.90
15343;DHT22;7771;48.478;8.936;2023-05-07T13:06:25;20.30;99.90
15343;DHT22;7771;48.478;8.936;2023-05-07T13:08:51;20.10;99.90
15343;DHT22;7771;48.478;8.936;2023-05-07T13:11:19;20.00;99.90
15343;DHT22;7771;48.478;8.936;2023-05-07T13:13:45;19.90;99.90
15343;DHT22;7771;48.478;8.936;2023-05-07T13:18:40;19.70;99.90
15343;DHT22;7771;48.478;8.936;2023-05-07T13:21:08;19.40;99.90
15343;DHT22;7771;48.478;8.936;2023-05-07T13:23:35;19.30;99.90
15343;DHT22;7771;48.478;8.936;2023-05-07T13:26:03;19.20;99.90
15343;DHT22;7771;48.478;8.936;2023-05-07T13:28:30;19.20;99.90
15343;DHT22;7771;48.478;8.936;2023-05-07T13:30:57;19.10;99.90
15343;DHT22;7771;48.478;8.936;2023-05-07T13:33:24;19.10;99.90
15343;DHT22;7771;48.478;8.936;2023-05-07T13:35:51;19.00;99.90
15343;DHT22;7771;48.478;8.936;2023-05-07T13:38:18;19.00;99.90
15343;DHT22;7771;48.478;8.936;2023-05-07T13:40:46;18.80;99.90
15343;DHT22;7771;48.478;8.936;2023-05-07T13:43:12;18.70;99.90
15343;DHT22;7771;48.478;8.936;2023-05-07T13:48:08;18.60;99.90
15343;DHT22;7771;48.478;8.936;2023-05-07T13:50:35;18.50;99.90
15343;DHT22;7771;48.478;8.936;2023-05-07T13:55:30;18.50;99.90
15343;DHT22;7771;48.478;8.936;2023-05-07T13:57:57;18.40;99.90
15343;DHT22;7771;48.478;8.936;2023-05-07T14:00:24;18.30;99.90
15343;DHT22;7771;48.478;8.936;2023-05-07T14:02:51;18.20;99.90
15343;DHT22;7771;48.478;8.936;2023-05-07T14:05:18;18.20;99.90
15343;DHT22;7771;48.478;8.936;2023-05-07T14:07:45;18.30;99.90
15343;DHT22;7771;48.478;8.936;2023-05-07T14:10:13;18.30;99.90
15343;DHT22;7771;48.478;8.936;2023-05-07T14:15:09;18.30;99.90
15343;DHT22;7771;48.478;8.936;2023-05-07T14:17:37;18.20;99.90
15343;DHT22;7771;48.478;8.936;2023-05-07T14:20:04;18.30;99.90
15343;DHT22;7771;48.478;8.936;2023-05-07T14:22:34;18.30;99.90
15343;DHT22;7771;48.478;8.936;2023-05-07T14:25:00;18.30;99.90
15343;DHT22;7771;48.478;8.936;2023-05-07T14:27:27;18.40;99.90
15343;DHT22;7771;48.478;8.936;2023-05-07T14:29:54;18.40;99.90
15343;DHT22;7771;48.478;8.936;2023-05-07T14:34:50;18.50;99.90
15343;DHT22;7771;48.478;8.936;2023-05-07T14:37:17;18.60;99.90
15343;DHT22;7771;48.478;8.936;2023-05-07T14:39:44;18.60;99.90
15343;DHT22;7771;48.478;8.936;2023-05-07T14:42:10;18.70;99.90
15343;DHT22;7771;48.478;8.936;2023-05-07T14:44:37;18.70;99.90
15343;DHT22;7771;48.478;8.936;2023-05-07T14:47:04;18.80;99.90
15343;DHT22;7771;48.478;8.936;2023-05-07T14:49:30;18.90;99.90
15343;DHT22;7771;48.478;8.936;2023-05-07T14:51:58;19.00;99.90
15343;DHT22;7771;48.478;8.936;2023-05-07T14:54:26;19.10;99.90
15343;DHT22;7771;48.478;8.936;2023-05-07T14:56:53;19.10;99.90
15343;DHT22;7771;48.478;8.936;2023-05-07T15:01:47;19.20;99.90
15343;DHT22;7771;48.478;8.936;2023-05-07T15:04:14;19.20;99.90
15343;DHT22;7771;48.478;8.936;2023-05-07T15:06:41;19.30;99.90
15343;DHT22;7771;48.478;8.936;2023-05-07T15:11:36;19.50;99.90
15343;DHT22;7771;48.478;8.936;2023-05-07T15:14:02;19.60;99.90
15343;DHT22;7771;48.478;8.936;2023-05-07T15:16:29;19.70;99.90
15343;DHT22;7771;48.478;8.936;2023-05-07T15:21:24;19.80;99.90
15343;DHT22;7771;48.478;8.936;2023-05-07T15:23:52;19.90;99.90
15343;DHT22;7771;48.478;8.936;2023-05-07T15:28:46;20.00;99.90
15343;DHT22;7771;48.478;8.936;2023-05-07T15:31:14;20.00;99.90
15343;DHT22;7771;48.478;8.936;2023-05-07T15:33:42;20.00;99.90
15343;DHT22;7771;48.478;8.936;2023-05-07T15:36:08;20.10;99.90
15343;DHT22;7771;48.478;8.936;2023-05-07T15:38:35;20.10;99.90
15343;DHT22;7771;48.478;8.936;2023-05-07T15:41:02;20.10;99.90
15343;DHT22;7771;48.478;8.936;2023-05-07T15:43:28;20.10;99.90
15343;DHT22;7771;48.478;8.936;2023-05-07T15:45:55;20.20;99.90
15343;DHT22;7771;48.478;8.936;2023-05-07T15:48:22;20.20;99.90
15343;DHT22;7771;48.478;8.936;2023-05-07T15:50:50;20.10;99.90
15343;DHT22;7771;48.478;8.936;2023-05-07T15:53:19;20.10;99.90
15343;DHT22;7771;48.478;8.936;2023-05-07T15:55:45;20.10;99.90
15343;DHT22;7771;48.478;8.936;2023-05-07T15:58:13;20.10;99.90
15343;DHT22;7771;48.478;8.936;2023-05-07T16:00:39;20.10;99.90
15343;DHT22;7771;48.478;8.936;2023-05-07T16:03:08;20.00;99.90
15343;DHT22;7771;48.478;8.936;2023-05-07T16:10:49;20.00;99.90
15343;DHT22;7771;48.478;8.936;2023-05-07T16:13:16;20.00;99.90
15343;DHT22;7771;48.478;8.936;2023-05-07T16:15:43;20.00;99.90
15343;DHT22;7771;48.478;8.936;2023-05-07T16:18:10;20.00;99.90
15343;DHT22;7771;48.478;8.936;2023-05-07T16:20:37;19.90;99.90
15343;DHT22;7771;48.478;8.936;2023-05-07T16:23:04;19.90;99.90
15343;DHT22;7771;48.478;8.936;2023-05-07T16:25:32;19.90;99.90
15343;DHT22;7771;48.478;8.936;2023-05-07T16:28:00;19.80;99.90
15343;DHT22;7771;48.478;8.936;2023-05-07T16:30:28;19.80;99.90
15343;DHT22;7771;48.478;8.936;2023-05-07T16:32:55;19.70;99.90
15343;DHT22;7771;48.478;8.936;2023-05-07T16:35:22;19.70;99.90
15343;DHT22;7771;48.478;8.936;2023-05-07T16:37:49;19.70;99.90
15343;DHT22;7771;48.478;8.936;2023-05-07T16:40:17;19.60;99.90
15343;DHT22;7771;48.478;8.936;2023-05-07T16:42:45;19.60;99.90
15343;DHT22;7771;48.478;8.936;2023-05-07T16:45:13;19.60;99.90
15343;DHT22;7771;48.478;8.936;2023-05-07T16:47:41;19.60;99.90
15343;DHT22;7771;48.478;8.936;2023-05-07T16:50:07;19.50;99.90
15343;DHT22;7771;48.478;8.936;2023-05-07T16:52:35;19.50;99.90
15343;DHT22;7771;48.478;8.936;2023-05-07T16:55:01;19.40;99.90
15343;DHT22;7771;48.478;8.936;2023-05-07T16:57:28;19.40;99.90
15343;DHT22;7771;48.478;8.936;2023-05-07T16:59:55;19.40;99.90
15343;DHT22;7771;48.478;8.936;2023-05-07T17:02:23;19.30;99.90
15343;DHT22;7771;48.478;8.936;2023-05-07T17:04:51;19.30;99.90
15343;DHT22;7771;48.478;8.936;2023-05-07T17:07:18;19.30;99.90
15343;DHT22;7771;48.478;8.936;2023-05-07T17:09:46;19.30;99.90
15343;DHT22;7771;48.478;8.936;2023-05-07T17:12:12;19.30;99.90
15343;DHT22;7771;48.478;8.936;2023-05-07T17:14:39;19.30;99.90
15343;DHT22;7771;48.478;8.936;2023-05-07T17:17:06;19.30;99.90
15343;DHT22;7771;48.478;8.936;2023-05-07T17:19:34;19.30;99.90
15343;DHT22;7771;48.478;8.936;2023-05-07T17:22:00;19.30;99.90
15343;DHT22;7771;48.478;8.936;2023-05-07T17:26:54;19.20;99.90
15343;DHT22;7771;48.478;8.936;2023-05-07T17:29:21;19.20;99.90